Time;durP1;ratioP1;P1;durP2;ratioP2;P2;SDS_P1;SDS_P2;PMS_P1;PMS_P2;Temp;Humidity;BMP_temperature;BMP_pressure;BME280_temperature;BME280_humidity;BME280_pressure;Samples;Min_cycle;Max_cycle;Signal;HPM_P1;HPM_P2
2023/11/11 09:14:52;;;;;;;1.40;1.30;;;;;;;7.75;100.00;97744.63;5122925;27;20576;-82
2023/11/11 09:17:21;;;;;;;2.53;1.40;;;;;;;8.30;100.00;97760.06;5071866;28;38854;-82
2023/11/11 09:19:49;;;;;;;1.53;1.10;;;;;;;8.85;100.00;97776.41;5089759;28;41749;-82
2023/11/11 09:22:16;;;;;;;1.00;0.93;;;;;;;9.18;100.00;97759.88;5089823;28;43164;-82
2023/11/11 09:24:44;;;;;;;0.97;0.83;;;;;;;9.63;97.11;97772.31;5071597;28;42670;-82
2023/11/11 09:27:11;;;;;;;2.47;0.90;;;;;;;9.85;94.32;97778.59;5089685;28;40521;-82
2023/11/11 09:29:39;;;;;;;1.33;1.00;;;;;;;10.14;91.86;97792.22;5071520;28;40520;-82
2023/11/11 09:32:11;;;;;;;1.43;0.93;;;;;;;10.14;89.41;97771.06;5088030;28;41758;-82
2023/11/11 09:34:42;;;;;;;1.63;0.60;;;;;;;10.49;87.15;97794.78;5088337;28;41472;-82
2023/11/11 09:37:10;;;;;;;0.93;0.83;;;;;;;10.73;84.70;97806.06;5085458;28;40013;-83
2023/11/11 09:39:38;;;;;;;0.77;0.77;;;;;;;10.80;82.95;97804.59;5071388;28;42321;-83
2023/11/11 09:42:07;;;;;;;1.00;0.90;;;;;;;10.87;82.38;97816.41;5069741;28;42549;-83
2023/11/11 09:44:35;;;;;;;1.03;0.90;;;;;;;10.83;81.44;97800.88;5087415;28;42024;-83
2023/11/11 09:47:06;;;;;;;0.83;0.83;;;;;;;10.92;81.40;97824.81;5070513;28;41681;-80
2023/11/11 09:49:35;;;;;;;1.13;0.80;;;;;;;10.80;81.66;97807.25;5070275;28;42374;-82
2023/11/11 09:52:04;;;;;;;1.33;1.23;;;;;;;10.81;81.70;97832.78;5070418;28;41656;-83
2023/11/11 09:54:33;;;;;;;1.43;1.13;;;;;;;10.39;82.43;97787.53;5086862;28;41112;-82
2023/11/11 09:57:02;;;;;;;5.90;1.67;;;;;;;10.56;83.69;97835.66;5088382;28;39913;-80
2023/11/11 09:59:31;;;;;;;2.47;1.17;;;;;;;10.26;84.78;97815.91;5087038;28;41057;-82
2023/11/11 10:02:01;;;;;;;2.53;1.40;;;;;;;10.24;85.93;97836.38;5069707;28;41766;-82
2023/11/11 10:04:28;;;;;;;1.30;1.00;;;;;;;9.95;86.54;97827.16;5087599;28;43100;-80
2023/11/11 10:06:58;;;;;;;1.03;0.93;;;;;;;9.90;87.06;97845.16;5070395;28;38939;-80
2023/11/11 10:09:25;;;;;;;2.00;1.10;;;;;;;9.72;87.86;97840.34;5069486;28;40991;-80
2023/11/11 10:11:54;;;;;;;1.63;1.40;;;;;;;9.49;88.51;97830.63;5087119;28;42952;-82
2023/11/11 10:14:23;;;;;;;0.90;0.90;;;;;;;9.35;88.63;97826.38;5069976;28;42231;-82
2023/11/11 10:16:54;;;;;;;2.17;1.00;;;;;;;9.27;88.93;97825.25;5070443;28;40267;-81
2023/11/11 10:19:22;;;;;;;2.23;1.00;;;;;;;9.33;89.73;97845.94;5070866;28;41788;-82
2023/11/11 10:21:58;;;;;;;1.13;1.03;;;;;;;9.25;90.24;97832.44;5087580;28;42917;-82
2023/11/11 10:24:25;;;;;;;1.40;1.30;;;;;;;9.26;90.33;97839.44;5083935;28;41310;-81
2023/11/11 10:26:53;;;;;;;2.13;1.23;;;;;;;9.39;90.86;97855.22;5057055;28;41076;-81
2023/11/11 10:29:21;;;;;;;2.57;1.50;;;;;;;9.45;91.18;97842.38;5056760;28;40963;-81
2023/11/11 10:31:49;;;;;;;2.07;1.40;;;;;;;9.63;91.12;97838.38;5074010;28;42850;-81
2023/11/11 10:34:17;;;;;;;1.67;1.57;;;;;;;9.88;90.84;97853.25;5073411;28;42068;-81
2023/11/11 10:36:46;;;;;;;2.30;2.03;;;;;;;10.09;90.25;97861.34;5075075;28;40961;-82
2023/11/11 10:39:15;;;;;;;2.87;2.00;;;;;;;10.15;89.61;97837.03;5056697;28;41491;-79
2023/11/11 10:41:44;;;;;;;3.57;1.73;;;;;;;10.25;86.62;97850.47;5072111;28;42602;-83
2023/11/11 10:44:11;;;;;;;1.50;1.40;;;;;;;12.65;85.14;97866.91;5055274;28;41618;-82
2023/11/11 10:46:40;;;;;;;1.90;1.20;;;;;;;13.70;73.43;97885.00;5056092;28;39169;-83
2023/11/11 10:49:09;;;;;;;2.03;1.30;;;;;;;13.21;71.84;97897.38;5055638;28;42420;-81
2023/11/11 10:51:37;;;;;;;3.03;1.40;;;;;;;12.93;70.67;97908.72;5073682;28;42850;-83
2023/11/11 10:54:05;;;;;;;1.77;1.20;;;;;;;12.73;71.58;97896.34;5073297;28;42730;-83
2023/11/11 10:56:34;;;;;;;1.30;1.20;;;;;;;12.41;71.01;97901.72;5072867;28;39840;-83
2023/11/11 10:59:04;;;;;;;1.37;1.27;;;;;;;12.02;71.00;97876.75;5072261;28;42677;-83
2023/11/11 11:01:33;;;;;;;3.47;1.70;;;;;;;11.95;71.77;97894.16;5072657;28;44052;-84
2023/11/11 11:04:02;;;;;;;2.10;1.40;;;;;;;11.75;70.67;97883.38;5072238;28;41065;-84
2023/11/11 11:06:35;;;;;;;1.50;1.40;;;;;;;11.71;71.49;97892.53;5072397;28;40872;-82
2023/11/11 11:09:21;;;;;;;4.03;1.33;;;;;;;11.77;71.98;97886.75;5055260;28;40987;-83
2023/11/11 11:12:01;;;;;;;1.40;1.27;;;;;;;14.59;66.02;97880.31;5055629;28;44439;-83
2023/11/11 11:14:39;;;;;;;2.10;1.27;;;;;;;18.46;53.11;97937.81;5073084;28;43096;-84
2023/11/11 11:17:08;;;;;;;3.23;1.43;;;;;;;21.64;47.02;97941.06;5056506;28;38981;-83
2023/11/11 11:19:51;;;;;;;1.10;0.90;;;;;;;23.92;40.52;97966.78;5056434;28;41052;-85
2023/11/11 11:22:19;;;;;;;1.47;1.00;;;;;;;22.16;42.72;97962.47;5056908;28;43296;-84
2023/11/11 11:24:52;;;;;;;1.63;1.30;;;;;;;20.06;43.98;97939.34;5072947;28;41265;-84
2023/11/11 11:27:21;;;;;;;1.43;1.00;;;;;;;18.35;44.89;97948.88;5069937;28;40205;-84
2023/11/11 11:29:49;;;;;;;1.10;1.00;;;;;;;16.99;47.54;97939.19;5056741;28;41084;-84
2023/11/11 11:32:23;;;;;;;1.23;1.13;;;;;;;15.76;49.71;97919.63;5074387;28;42430;-82
2023/11/11 11:35:27;;;;;;;2.20;1.17;;;;;;;14.90;51.03;97937.72;5073240;28;40946;-84
2023/11/11 11:37:55;;;;;;;2.43;1.07;;;;;;;13.98;52.61;97926.75;5056350;28;38774;-81
2023/11/11 11:40:24;;;;;;;1.20;1.10;;;;;;;13.37;55.49;97917.28;5072875;28;41609;-80
2023/11/11 11:42:56;;;;;;;1.13;1.00;;;;;;;12.79;56.91;97896.63;5076900;28;42938;-82
2023/11/11 11:45:30;;;;;;;1.73;1.10;;;;;;;12.30;59.36;97894.69;5055197;28;41220;-84
2023/11/11 11:47:58;;;;;;;0.97;0.90;;;;;;;12.02;60.80;97897.97;5070659;28;39451;-82
2023/11/11 11:50:25;;;;;;;1.37;1.10;;;;;;;11.65;62.90;97886.88;5054958;28;40618;-82
2023/11/11 11:52:53;;;;;;;1.30;1.20;;;;;;;11.48;64.85;97902.38;5071455;28;42885;-83
2023/11/11 11:55:22;;;;;;;1.07;1.00;;;;;;;11.22;66.19;97901.00;5071526;28;41031;-83
2023/11/11 11:57:55;;;;;;;1.70;1.23;;;;;;;10.99;67.42;97902.84;5054318;28;40066;-81
2023/11/11 12:00:24;;;;;;;1.63;1.30;;;;;;;10.72;69.02;97889.13;5054562;28;41192;-82
2023/11/11 12:02:53;;;;;;;1.60;1.30;;;;;;;10.63;69.97;97890.66;5054347;28;42963;-83
2023/11/11 12:05:21;;;;;;;1.90;1.37;;;;;;;10.47;71.22;97876.94;5072121;28;42868;-83
2023/11/11 12:07:50;;;;;;;1.30;1.20;;;;;;;10.53;71.88;97870.31;5071173;28;40447;-83
2023/11/11 12:10:18;;;;;;;1.17;1.07;;;;;;;10.65;72.27;97874.66;5071266;28;40459;-83
2023/11/11 12:12:47;;;;;;;2.30;1.23;;;;;;;10.75;71.88;97886.22;5054222;28;41808;-84
2023/11/11 12:15:17;;;;;;;1.60;1.50;;;;;;;10.73;71.49;97883.69;5071728;28;41963;-81
2023/11/11 12:17:45;;;;;;;2.97;1.30;;;;;;;10.78;71.53;97902.69;5071759;28;39875;-82
2023/11/11 12:20:15;;;;;;;1.03;1.00;;;;;;;10.76;72.21;97877.28;5055426;28;40869;-82
2023/11/11 12:22:43;;;;;;;1.40;1.30;;;;;;;10.88;72.77;97886.91;5055853;28;44391;-81
2023/11/11 12:25:11;;;;;;;1.50;1.20;;;;;;;11.01;73.29;97898.22;5071820;28;42903;-83
2023/11/11 12:27:39;;;;;;;1.40;1.30;;;;;;;10.99;73.11;97902.00;5072261;28;40335;-81
2023/11/11 12:30:23;;;;;;;1.73;1.30;;;;;;;10.86;73.61;97904.75;5072132;28;42007;-83
2023/11/11 12:33:04;;;;;;;1.53;1.30;;;;;;;10.67;73.57;97915.09;5070041;28;42793;-84
2023/11/11 12:35:33;;;;;;;1.60;1.50;;;;;;;10.56;74.07;97928.31;5055525;28;43149;-81
2023/11/11 12:38:22;;;;;;;2.10;1.90;;;;;;;10.43;75.90;97918.69;5072059;28;39446;-81
2023/11/11 12:40:51;;;;;;;1.30;1.20;;;;;;;10.13;75.29;97934.22;5069571;28;42765;-80
2023/11/11 12:43:18;;;;;;;1.07;1.00;;;;;;;9.87;76.00;97927.41;5070085;28;42835;-82
2023/11/11 12:45:48;;;;;;;0.97;0.93;;;;;;;9.62;77.27;97936.28;5071575;28;42259;-81
2023/11/11 12:48:16;;;;;;;1.83;0.90;;;;;;;9.51;78.44;97931.78;5053762;28;39828;-79
2023/11/11 12:50:44;;;;;;;1.20;1.10;;;;;;;9.29;78.93;97908.72;5070319;28;40529;-82
2023/11/11 12:53:14;;;;;;;0.80;0.80;;;;;;;9.27;79.12;97930.94;5071832;28;42932;-80
2023/11/11 12:55:43;;;;;;;1.67;1.00;;;;;;;9.13;78.66;97944.28;5053012;28;41205;-78
2023/11/11 12:58:21;;;;;;;1.33;1.10;;;;;;;8.77;77.69;97932.72;5071687;28;39771;-81
2023/11/11 13:00:55;;;;;;;2.13;0.90;;;;;;;8.68;77.85;97922.78;5053244;28;43119;-82
2023/11/11 13:03:25;;;;;;;2.13;1.17;;;;;;;8.54;78.88;97941.38;5036749;28;41836;-81
2023/11/11 13:05:54;;;;;;;1.10;1.00;;;;;;;8.34;79.08;97911.09;5071433;28;41882;-80
2023/11/11 13:08:22;;;;;;;1.97;1.30;;;;;;;8.53;79.06;97918.59;5070210;28;40803;-80
2023/11/11 13:10:53;;;;;;;1.33;1.23;;;;;;;8.69;80.52;97913.91;5069668;28;41803;-81
2023/11/11 13:13:21;;;;;;;2.00;1.37;;;;;;;8.72;80.57;97913.72;5070138;28;42812;-80
2023/11/11 13:15:51;;;;;;;1.43;1.33;;;;;;;8.72;80.90;97908.44;5071340;28;42108;-80
2023/11/11 13:18:22;;;;;;;1.63;1.37;;;;;;;8.75;80.56;97907.38;5054263;28;40953;-81
2023/11/11 13:20:51;;;;;;;3.27;2.03;;;;;;;8.91;81.17;97911.44;5070080;28;41719;-80
2023/11/11 13:23:20;;;;;;;3.70;2.00;;;;;;;9.11;80.83;97909.22;5071019;28;42807;-82
2023/11/11 13:25:50;;;;;;;2.17;1.53;;;;;;;9.09;80.42;97911.09;5054413;28;40944;-80
2023/11/11 13:28:18;;;;;;;1.57;1.47;;;;;;;9.05;80.38;97909.63;5071134;28;38958;-80
2023/11/11 13:30:47;;;;;;;3.43;1.57;;;;;;;9.05;80.98;97905.19;5070695;28;41798;-82
2023/11/11 13:33:16;;;;;;;2.57;1.80;;;;;;;9.05;81.15;97904.34;5070848;28;41999;-82
2023/11/11 13:35:46;;;;;;;2.27;1.80;;;;;;;9.15;80.62;97890.38;5071023;28;42317;-82
2023/11/11 13:38:19;;;;;;;1.80;1.30;;;;;;;9.28;79.92;97891.16;5070673;28;40985;-82
2023/11/11 13:40:48;;;;;;;2.27;1.60;;;;;;;9.38;78.73;97915.16;5070139;28;41531;-81
2023/11/11 13:43:17;;;;;;;1.47;1.30;;;;;;;9.55;76.86;97925.31;5052440;28;42317;-82
2023/11/11 13:45:46;;;;;;;1.27;0.93;;;;;;;10.47;76.69;97914.00;5071578;28;43307;-81
2023/11/11 13:48:14;;;;;;;1.30;1.17;;;;;;;12.22;69.91;97944.94;5071047;28;39831;-83
2023/11/11 13:50:43;;;;;;;1.43;0.97;;;;;;;13.56;62.40;97971.38;5068701;28;41540;-82
2023/11/11 13:53:10;;;;;;;1.87;1.27;;;;;;;14.46;59.71;97981.03;5068326;28;42837;-82
2023/11/11 13:55:38;;;;;;;1.27;1.03;;;;;;;14.98;57.15;97987.66;5068286;28;41228;-81
2023/11/11 13:58:05;;;;;;;1.13;0.90;;;;;;;15.76;55.50;97989.03;5069331;28;40349;-81
2023/11/11 14:00:36;;;;;;;1.83;1.03;;;;;;;16.39;54.36;97994.38;5071621;28;41952;-83
2023/11/11 14:03:05;;;;;;;1.10;0.70;;;;;;;16.50;51.00;98005.66;5056068;28;44827;-82
2023/11/11 14:05:33;;;;;;;1.97;0.90;;;;;;;16.69;49.36;98010.00;5073140;28;46415;-83
2023/11/11 14:08:02;;;;;;;1.73;0.90;;;;;;;17.04;49.31;98000.25;5055774;28;41045;-82
2023/11/11 14:10:32;;;;;;;0.97;0.90;;;;;;;16.78;47.68;98009.09;5056104;28;40784;-83
2023/11/11 14:13:00;;;;;;;1.90;1.07;;;;;;;16.30;45.77;98025.53;5073994;28;42387;-83
2023/11/11 14:15:38;;;;;;;3.87;1.57;;;;;;;16.14;46.34;98028.88;5073553;28;42110;-83
2023/11/11 14:18:08;;;;;;;1.40;1.00;;;;;;;16.05;47.09;98021.75;5070496;28;39804;-83
2023/11/11 14:20:36;;;;;;;1.63;0.70;;;;;;;16.25;47.53;98018.94;5074215;28;41657;-82
2023/11/11 14:23:07;;;;;;;2.73;0.80;;;;;;;16.35;46.02;98033.06;5056530;28;42707;-84
2023/11/11 14:25:35;;;;;;;2.20;0.70;;;;;;;15.71;46.24;98040.19;5070793;28;42417;-82
2023/11/11 14:28:03;;;;;;;1.20;0.90;;;;;;;14.98;48.62;98025.81;5056294;28;39905;-83
2023/11/11 14:30:31;;;;;;;1.97;0.97;;;;;;;14.31;48.35;98031.19;5072686;28;41855;-84
2023/11/11 14:32:59;;;;;;;1.90;0.80;;;;;;;13.69;49.93;98018.19;5056113;28;43270;-82
2023/11/11 14:35:27;;;;;;;1.03;0.90;;;;;;;13.22;50.68;98036.47;5073570;28;43120;-82
2023/11/11 14:37:57;;;;;;;2.17;1.23;;;;;;;12.76;52.30;98007.63;5078461;28;41829;-84
2023/11/11 14:40:26;;;;;;;3.03;0.90;;;;;;;12.50;53.95;98005.34;5065330;28;40570;-84
2023/11/11 14:42:56;;;;;;;0.97;0.90;;;;;;;12.28;53.64;98012.59;5072356;28;43160;-82
2023/11/11 14:45:26;;;;;;;1.70;0.70;;;;;;;12.07;54.50;98017.84;5074022;28;42407;-84
2023/11/11 14:47:53;;;;;;;1.17;0.80;;;;;;;11.85;55.20;98006.34;5072179;28;39912;-82
2023/11/11 14:50:22;;;;;;;1.10;0.90;;;;;;;11.87;55.83;98019.47;5073095;28;40576;-86
2023/11/11 14:52:50;;;;;;;3.33;1.10;;;;;;;11.68;56.46;97998.03;5073131;28;43516;-84
2023/11/11 14:55:19;;;;;;;0.97;0.87;;;;;;;11.53;56.90;97986.84;5055870;28;42014;-82
2023/11/11 14:57:49;;;;;;;1.77;1.00;;;;;;;11.60;56.85;98027.81;5055515;28;39033;-84
2023/11/11 15:00:22;;;;;;;2.43;0.97;;;;;;;11.38;56.89;98012.75;5055368;28;41993;-84
2023/11/11 15:02:50;;;;;;;2.33;0.83;;;;;;;11.05;57.55;97984.47;5072746;28;41954;-84
2023/11/11 15:05:20;;;;;;;2.30;1.20;;;;;;;10.91;57.71;97991.78;5055549;28;41108;-83
2023/11/11 15:07:48;;;;;;;1.67;0.97;;;;;;;10.72;58.31;97992.38;5055460;28;40411;-85
2023/11/11 15:10:18;;;;;;;1.17;0.93;;;;;;;10.51;59.07;97989.56;5055249;28;43068;-83
2023/11/11 15:12:45;;;;;;;2.07;1.30;;;;;;;10.17;59.35;97970.06;5072180;28;41577;-83
2023/11/11 15:15:16;;;;;;;1.03;0.80;;;;;;;9.95;60.14;97956.75;5054801;28;41440;-83
2023/11/11 15:17:44;;;;;;;1.83;0.90;;;;;;;9.93;60.76;97985.09;5069174;28;40965;-82
2023/11/11 15:20:14;;;;;;;1.13;0.90;;;;;;;9.77;61.44;97981.91;5074108;28;41916;-86
2023/11/11 15:22:45;;;;;;;0.90;0.90;;;;;;;9.67;62.11;98002.88;5072795;28;41911;-82
2023/11/11 15:25:14;;;;;;;2.50;1.17;;;;;;;9.55;62.44;98001.97;5073799;28;41712;-85
2023/11/11 15:27:43;;;;;;;1.40;1.00;;;;;;;9.40;62.66;98008.34;5072495;28;40389;-85
2023/11/11 15:30:14;;;;;;;2.00;1.20;;;;;;;9.19;63.32;97994.00;5056282;28;42012;-83
2023/11/11 15:32:43;;;;;;;1.67;1.20;;;;;;;9.13;64.07;98002.38;5069689;28;42659;-84
2023/11/11 15:35:11;;;;;;;1.17;0.97;;;;;;;8.98;64.71;97997.22;5072917;28;42256;-82
2023/11/11 15:37:39;;;;;;;1.60;1.20;;;;;;;8.89;65.12;98004.94;5055693;28;38811;-85
2023/11/11 15:40:08;;;;;;;3.07;1.30;;;;;;;8.79;65.56;98015.25;5055217;28;40816;-82
2023/11/11 15:42:36;;;;;;;1.00;1.00;;;;;;;8.67;66.73;98004.69;5070343;28;41951;-83
2023/11/11 15:45:06;;;;;;;1.13;1.03;;;;;;;8.54;66.66;97997.63;5071089;28;41741;-83
2023/11/11 15:47:33;;;;;;;3.93;1.63;;;;;;;8.54;66.77;98009.97;5054240;28;40536;-85
2023/11/11 15:50:04;;;;;;;3.33;1.30;;;;;;;8.42;67.31;98005.53;5054238;28;40766;-87
2023/11/11 15:52:32;;;;;;;1.23;1.13;;;;;;;8.15;67.81;97974.75;5054312;28;41891;-81
2023/11/11 15:54:59;;;;;;;1.10;1.00;;;;;;;8.28;67.69;97999.34;5053219;28;42239;-83
2023/11/11 15:57:27;;;;;;;1.20;1.10;;;;;;;8.19;68.04;97997.31;5053791;28;39288;-84
2023/11/11 15:59:56;;;;;;;1.53;1.20;;;;;;;8.22;68.07;98005.03;5054373;28;40444;-86
2023/11/11 16:02:23;;;;;;;1.33;1.03;;;;;;;8.29;68.60;98030.06;5053808;28;42140;-83
2023/11/11 16:04:51;;;;;;;1.77;1.37;;;;;;;8.21;68.21;98024.44;5070437;28;41503;-87
2023/11/11 16:07:20;;;;;;;1.87;1.50;;;;;;;8.07;68.06;98000.78;5071951;28;39943;-84
2023/11/11 16:09:48;;;;;;;3.77;2.30;;;;;;;8.05;68.30;97996.53;5071352;28;40606;-83
2023/11/11 16:12:15;;;;;;;3.83;1.73;;;;;;;8.24;68.40;98029.53;5070786;28;41643;-86
2023/11/11 16:14:43;;;;;;;4.87;2.47;;;;;;;8.06;68.25;98000.88;5070935;28;42541;-83
2023/11/11 16:17:10;;;;;;;4.07;2.10;;;;;;;8.10;68.79;98021.69;5070979;28;38957;-83
2023/11/11 16:19:38;;;;;;;3.63;1.57;;;;;;;8.19;68.72;98036.88;5071435;28;42516;-85
2023/11/11 16:22:05;;;;;;;2.87;1.30;;;;;;;8.18;68.50;98043.09;5070638;28;41517;-81
2023/11/11 16:24:34;;;;;;;4.07;1.60;;;;;;;8.25;68.63;98054.97;5072055;28;41688;-83
2023/11/11 16:27:02;;;;;;;2.00;1.10;;;;;;;8.29;68.77;98059.06;5071610;28;40394;-83
2023/11/11 16:29:30;;;;;;;1.53;1.00;;;;;;;8.25;68.75;98054.97;5071563;28;40613;-82
2023/11/11 16:31:57;;;;;;;2.50;1.00;;;;;;;8.38;68.95;98067.38;5071138;28;42759;-84
2023/11/11 16:34:25;;;;;;;1.50;1.00;;;;;;;8.39;68.86;98069.06;5072402;28;42881;-84
2023/11/11 16:36:52;;;;;;;1.10;1.00;;;;;;;8.40;69.56;98061.06;5070687;28;39384;-83
2023/11/11 16:39:20;;;;;;;1.87;1.03;;;;;;;8.36;69.30;98053.44;5069452;28;40448;-84
2023/11/11 16:41:49;;;;;;;2.80;1.17;;;;;;;8.39;69.37;98053.25;5070252;28;43171;-85
